sensor_id;sensor_type;location;lat;lon;timestamp;P1;durP1;ratioP1;P2;durP2;ratioP2
3573;SDS011;1801;51.050;6.246;2023-06-14T00:00:57;10.47;;;7.00;;
3573;SDS011;1801;51.050;6.246;2023-06-14T00:03:22;9.70;;;6.60;;
3573;SDS011;1801;51.050;6.246;2023-06-14T00:05:49;11.20;;;6.90;;
3573;SDS011;1801;51.050;6.246;2023-06-14T00:08:15;10.90;;;7.03;;
3573;SDS011;1801;51.050;6.246;2023-06-14T00:10:40;8.53;;;7.10;;
3573;SDS011;1801;51.050;6.246;2023-06-14T00:13:09;10.63;;;7.43;;
3573;SDS011;1801;51.050;6.246;2023-06-14T00:15:34;11.17;;;7.40;;
3573;SDS011;1801;51.050;6.246;2023-06-14T00:18:00;10.07;;;7.20;;
3573;SDS011;1801;51.050;6.246;2023-06-14T00:20:29;9.20;;;6.43;;
3573;SDS011;1801;51.050;6.246;2023-06-14T00:22:55;11.17;;;7.30;;
3573;SDS011;1801;51.050;6.246;2023-06-14T00:25:24;9.43;;;7.60;;
3573;SDS011;1801;51.050;6.246;2023-06-14T00:27:52;12.63;;;7.13;;
3573;SDS011;1801;51.050;6.246;2023-06-14T00:30:18;9.13;;;6.77;;
3573;SDS011;1801;51.050;6.246;2023-06-14T00:32:43;12.87;;;7.50;;
3573;SDS011;1801;51.050;6.246;2023-06-14T00:35:09;8.67;;;6.40;;
3573;SDS011;1801;51.050;6.246;2023-06-14T00:37:34;12.20;;;7.77;;
3573;SDS011;1801;51.050;6.246;2023-06-14T00:40:00;12.03;;;7.00;;
3573;SDS011;1801;51.050;6.246;2023-06-14T00:42:25;10.23;;;6.90;;
3573;SDS011;1801;51.050;6.246;2023-06-14T00:44:50;7.97;;;6.67;;
3573;SDS011;1801;51.050;6.246;2023-06-14T00:47:16;10.63;;;7.13;;
3573;SDS011;1801;51.050;6.246;2023-06-14T00:49:41;8.50;;;7.20;;
3573;SDS011;1801;51.050;6.246;2023-06-14T00:52:06;10.87;;;8.50;;
3573;SDS011;1801;51.050;6.246;2023-06-14T00:54:32;14.93;;;7.33;;
3573;SDS011;1801;51.050;6.246;2023-06-14T00:56:57;10.57;;;6.83;;
3573;SDS011;1801;51.050;6.246;2023-06-14T00:59:22;10.80;;;7.63;;
3573;SDS011;1801;51.050;6.246;2023-06-14T01:01:47;10.07;;;7.80;;
3573;SDS011;1801;51.050;6.246;2023-06-14T01:04:13;10.10;;;7.70;;
3573;SDS011;1801;51.050;6.246;2023-06-14T01:06:45;8.13;;;6.70;;
3573;SDS011;1801;51.050;6.246;2023-06-14T01:09:32;8.20;;;6.90;;
3573;SDS011;1801;51.050;6.246;2023-06-14T01:12:00;11.20;;;8.00;;
3573;SDS011;1801;51.050;6.246;2023-06-14T01:14:29;11.77;;;7.50;;
3573;SDS011;1801;51.050;6.246;2023-06-14T01:16:55;12.70;;;8.30;;
3573;SDS011;1801;51.050;6.246;2023-06-14T01:19:22;16.03;;;8.20;;
3573;SDS011;1801;51.050;6.246;2023-06-14T01:21:50;17.70;;;7.50;;
3573;SDS011;1801;51.050;6.246;2023-06-14T01:24:16;13.20;;;7.93;;
3573;SDS011;1801;51.050;6.246;2023-06-14T01:26:44;15.30;;;7.70;;
3573;SDS011;1801;51.050;6.246;2023-06-14T01:29:10;8.00;;;6.77;;
3573;SDS011;1801;51.050;6.246;2023-06-14T01:31:36;12.33;;;7.70;;
3573;SDS011;1801;51.050;6.246;2023-06-14T01:34:06;11.47;;;8.20;;
3573;SDS011;1801;51.050;6.246;2023-06-14T01:36:31;14.50;;;7.67;;
3573;SDS011;1801;51.050;6.246;2023-06-14T01:38:56;13.93;;;7.80;;
3573;SDS011;1801;51.050;6.246;2023-06-14T01:41:23;9.73;;;6.73;;
3573;SDS011;1801;51.050;6.246;2023-06-14T01:43:49;11.93;;;7.50;;
3573;SDS011;1801;51.050;6.246;2023-06-14T01:46:15;12.63;;;6.93;;
3573;SDS011;1801;51.050;6.246;2023-06-14T01:48:41;12.57;;;7.87;;
3573;SDS011;1801;51.050;6.246;2023-06-14T01:51:06;10.43;;;7.20;;
3573;SDS011;1801;51.050;6.246;2023-06-14T01:53:31;13.73;;;8.00;;
3573;SDS011;1801;51.050;6.246;2023-06-14T01:55:56;17.60;;;7.40;;
3573;SDS011;1801;51.050;6.246;2023-06-14T01:58:22;11.23;;;7.43;;
3573;SDS011;1801;51.050;6.246;2023-06-14T02:00:48;13.03;;;7.43;;
3573;SDS011;1801;51.050;6.246;2023-06-14T02:03:14;18.20;;;8.87;;
3573;SDS011;1801;51.050;6.246;2023-06-14T02:05:40;9.47;;;6.80;;
3573;SDS011;1801;51.050;6.246;2023-06-14T02:08:05;8.10;;;6.80;;
3573;SDS011;1801;51.050;6.246;2023-06-14T02:10:31;12.33;;;6.90;;
3573;SDS011;1801;51.050;6.246;2023-06-14T02:12:56;14.87;;;7.40;;
3573;SDS011;1801;51.050;6.246;2023-06-14T02:15:21;10.13;;;7.00;;
3573;SDS011;1801;51.050;6.246;2023-06-14T02:17:47;14.33;;;7.27;;
3573;SDS011;1801;51.050;6.246;2023-06-14T02:20:12;11.33;;;8.03;;
3573;SDS011;1801;51.050;6.246;2023-06-14T02:22:37;9.20;;;7.37;;
3573;SDS011;1801;51.050;6.246;2023-06-14T02:25:03;11.77;;;7.30;;
3573;SDS011;1801;51.050;6.246;2023-06-14T02:27:28;9.20;;;7.27;;
3573;SDS011;1801;51.050;6.246;2023-06-14T02:29:53;12.17;;;7.70;;
3573;SDS011;1801;51.050;6.246;2023-06-14T02:32:18;13.83;;;8.27;;
3573;SDS011;1801;51.050;6.246;2023-06-14T02:34:43;12.40;;;7.20;;
3573;SDS011;1801;51.050;6.246;2023-06-14T02:37:09;12.60;;;8.23;;
3573;SDS011;1801;51.050;6.246;2023-06-14T02:39:34;12.90;;;6.70;;
3573;SDS011;1801;51.050;6.246;2023-06-14T02:42:00;12.03;;;7.70;;
3573;SDS011;1801;51.050;6.246;2023-06-14T02:44:25;9.50;;;7.60;;
3573;SDS011;1801;51.050;6.246;2023-06-14T02:46:52;12.57;;;8.10;;
3573;SDS011;1801;51.050;6.246;2023-06-14T02:49:17;11.17;;;6.63;;
3573;SDS011;1801;51.050;6.246;2023-06-14T02:51:43;10.37;;;6.53;;
3573;SDS011;1801;51.050;6.246;2023-06-14T02:54:08;16.30;;;7.40;;
3573;SDS011;1801;51.050;6.246;2023-06-14T02:56:33;12.07;;;7.60;;
3573;SDS011;1801;51.050;6.246;2023-06-14T02:58:58;17.30;;;9.60;;
3573;SDS011;1801;51.050;6.246;2023-06-14T03:01:25;11.40;;;7.57;;
3573;SDS011;1801;51.050;6.246;2023-06-14T03:04:02;11.30;;;6.70;;
3573;SDS011;1801;51.050;6.246;2023-06-14T03:06:30;11.10;;;7.50;;
3573;SDS011;1801;51.050;6.246;2023-06-14T03:08:56;13.60;;;8.60;;
3573;SDS011;1801;51.050;6.246;2023-06-14T03:11:25;15.73;;;7.73;;
3573;SDS011;1801;51.050;6.246;2023-06-14T03:13:50;12.20;;;7.67;;
3573;SDS011;1801;51.050;6.246;2023-06-14T03:16:16;13.47;;;7.63;;
3573;SDS011;1801;51.050;6.246;2023-06-14T03:18:44;14.27;;;7.80;;
3573;SDS011;1801;51.050;6.246;2023-06-14T03:21:09;15.20;;;8.17;;
3573;SDS011;1801;51.050;6.246;2023-06-14T03:23:36;12.83;;;7.67;;
3573;SDS011;1801;51.050;6.246;2023-06-14T03:26:01;8.07;;;7.27;;
3573;SDS011;1801;51.050;6.246;2023-06-14T03:28:26;11.53;;;7.20;;
3573;SDS011;1801;51.050;6.246;2023-06-14T03:30:51;14.50;;;8.20;;
3573;SDS011;1801;51.050;6.246;2023-06-14T03:33:16;16.73;;;9.27;;
3573;SDS011;1801;51.050;6.246;2023-06-14T03:35:42;10.23;;;7.90;;
3573;SDS011;1801;51.050;6.246;2023-06-14T03:38:07;10.40;;;7.50;;
3573;SDS011;1801;51.050;6.246;2023-06-14T03:40:32;12.03;;;7.23;;
3573;SDS011;1801;51.050;6.246;2023-06-14T03:42:57;13.50;;;7.47;;
3573;SDS011;1801;51.050;6.246;2023-06-14T03:45:22;9.03;;;6.73;;
3573;SDS011;1801;51.050;6.246;2023-06-14T03:47:48;15.10;;;7.73;;
3573;SDS011;1801;51.050;6.246;2023-06-14T03:50:13;9.23;;;7.37;;
3573;SDS011;1801;51.050;6.246;2023-06-14T03:52:38;20.43;;;8.40;;
3573;SDS011;1801;51.050;6.246;2023-06-14T03:55:04;12.73;;;7.33;;
3573;SDS011;1801;51.050;6.246;2023-06-14T03:57:29;15.43;;;8.50;;
3573;SDS011;1801;51.050;6.246;2023-06-14T03:59:54;12.97;;;8.03;;
3573;SDS011;1801;51.050;6.246;2023-06-14T04:02:20;10.47;;;7.00;;
3573;SDS011;1801;51.050;6.246;2023-06-14T04:04:45;11.23;;;7.90;;
3573;SDS011;1801;51.050;6.246;2023-06-14T04:07:13;13.13;;;8.43;;
3573;SDS011;1801;51.050;6.246;2023-06-14T04:09:39;12.60;;;7.63;;
3573;SDS011;1801;51.050;6.246;2023-06-14T04:12:05;16.40;;;8.50;;
3573;SDS011;1801;51.050;6.246;2023-06-14T04:14:30;19.63;;;8.40;;
3573;SDS011;1801;51.050;6.246;2023-06-14T04:16:57;10.50;;;7.40;;
3573;SDS011;1801;51.050;6.246;2023-06-14T04:19:23;10.37;;;7.60;;
3573;SDS011;1801;51.050;6.246;2023-06-14T04:21:48;10.70;;;7.20;;
3573;SDS011;1801;51.050;6.246;2023-06-14T04:24:13;12.80;;;8.20;;
3573;SDS011;1801;51.050;6.246;2023-06-14T04:26:44;16.50;;;7.43;;
3573;SDS011;1801;51.050;6.246;2023-06-14T04:29:16;14.50;;;7.30;;
3573;SDS011;1801;51.050;6.246;2023-06-14T04:31:44;11.93;;;7.60;;
3573;SDS011;1801;51.050;6.246;2023-06-14T04:34:09;14.03;;;7.40;;
3573;SDS011;1801;51.050;6.246;2023-06-14T04:36:41;12.53;;;7.90;;
3573;SDS011;1801;51.050;6.246;2023-06-14T04:39:16;12.90;;;7.40;;
3573;SDS011;1801;51.050;6.246;2023-06-14T04:41:45;14.87;;;7.40;;
3573;SDS011;1801;51.050;6.246;2023-06-14T04:44:11;15.50;;;7.60;;
3573;SDS011;1801;51.050;6.246;2023-06-14T04:46:37;11.50;;;7.67;;
3573;SDS011;1801;51.050;6.246;2023-06-14T04:49:10;12.80;;;8.23;;
3573;SDS011;1801;51.050;6.246;2023-06-14T04:51:40;11.80;;;7.50;;
3573;SDS011;1801;51.050;6.246;2023-06-14T04:54:06;12.23;;;7.70;;
3573;SDS011;1801;51.050;6.246;2023-06-14T04:56:35;25.83;;;9.03;;
3573;SDS011;1801;51.050;6.246;2023-06-14T04:59:00;13.63;;;8.43;;
3573;SDS011;1801;51.050;6.246;2023-06-14T05:01:25;12.30;;;8.77;;
3573;SDS011;1801;51.050;6.246;2023-06-14T05:03:51;11.43;;;7.30;;
3573;SDS011;1801;51.050;6.246;2023-06-14T05:06:16;13.20;;;8.67;;
3573;SDS011;1801;51.050;6.246;2023-06-14T05:08:42;11.97;;;7.73;;
3573;SDS011;1801;51.050;6.246;2023-06-14T05:11:07;15.00;;;7.53;;
3573;SDS011;1801;51.050;6.246;2023-06-14T05:13:32;13.53;;;8.23;;
3573;SDS011;1801;51.050;6.246;2023-06-14T05:15:59;12.90;;;7.30;;
3573;SDS011;1801;51.050;6.246;2023-06-14T05:18:25;9.10;;;7.23;;
3573;SDS011;1801;51.050;6.246;2023-06-14T05:20:50;12.33;;;7.10;;
3573;SDS011;1801;51.050;6.246;2023-06-14T05:23:15;13.30;;;7.20;;
3573;SDS011;1801;51.050;6.246;2023-06-14T05:25:44;12.97;;;9.57;;
3573;SDS011;1801;51.050;6.246;2023-06-14T05:28:09;9.90;;;7.60;;
3573;SDS011;1801;51.050;6.246;2023-06-14T05:30:34;16.23;;;7.67;;
3573;SDS011;1801;51.050;6.246;2023-06-14T05:32:59;19.70;;;8.17;;
3573;SDS011;1801;51.050;6.246;2023-06-14T05:35:25;12.43;;;7.20;;
3573;SDS011;1801;51.050;6.246;2023-06-14T05:37:51;12.30;;;6.70;;
3573;SDS011;1801;51.050;6.246;2023-06-14T05:40:17;14.50;;;7.60;;
3573;SDS011;1801;51.050;6.246;2023-06-14T05:42:42;13.70;;;8.10;;
3573;SDS011;1801;51.050;6.246;2023-06-14T05:45:07;9.67;;;7.23;;
3573;SDS011;1801;51.050;6.246;2023-06-14T05:47:33;16.87;;;7.33;;
3573;SDS011;1801;51.050;6.246;2023-06-14T05:49:58;10.73;;;6.63;;
3573;SDS011;1801;51.050;6.246;2023-06-14T05:52:23;12.17;;;7.17;;
3573;SDS011;1801;51.050;6.246;2023-06-14T05:54:48;12.70;;;6.80;;
3573;SDS011;1801;51.050;6.246;2023-06-14T05:57:14;9.97;;;7.00;;
3573;SDS011;1801;51.050;6.246;2023-06-14T05:59:39;11.47;;;7.13;;
3573;SDS011;1801;51.050;6.246;2023-06-14T06:02:05;10.93;;;7.23;;
3573;SDS011;1801;51.050;6.246;2023-06-14T06:04:30;14.53;;;6.60;;
3573;SDS011;1801;51.050;6.246;2023-06-14T06:06:55;14.50;;;7.17;;
3573;SDS011;1801;51.050;6.246;2023-06-14T06:09:21;13.70;;;7.10;;
3573;SDS011;1801;51.050;6.246;2023-06-14T06:11:46;12.20;;;6.03;;
3573;SDS011;1801;51.050;6.246;2023-06-14T06:14:11;15.33;;;6.93;;
3573;SDS011;1801;51.050;6.246;2023-06-14T06:16:36;15.33;;;6.30;;
3573;SDS011;1801;51.050;6.246;2023-06-14T06:19:01;15.77;;;6.60;;
3573;SDS011;1801;51.050;6.246;2023-06-14T06:21:27;11.53;;;6.47;;
3573;SDS011;1801;51.050;6.246;2023-06-14T06:23:52;11.17;;;6.97;;
3573;SDS011;1801;51.050;6.246;2023-06-14T06:26:17;14.17;;;6.57;;
3573;SDS011;1801;51.050;6.246;2023-06-14T06:28:42;14.03;;;6.83;;
3573;SDS011;1801;51.050;6.246;2023-06-14T06:31:07;18.37;;;6.03;;
3573;SDS011;1801;51.050;6.246;2023-06-14T06:33:33;10.77;;;6.47;;
3573;SDS011;1801;51.050;6.246;2023-06-14T06:35:58;14.70;;;7.00;;
3573;SDS011;1801;51.050;6.246;2023-06-14T06:38:23;8.80;;;5.50;;
3573;SDS011;1801;51.050;6.246;2023-06-14T06:40:48;17.33;;;6.13;;
3573;SDS011;1801;51.050;6.246;2023-06-14T06:43:13;13.67;;;6.63;;
3573;SDS011;1801;51.050;6.246;2023-06-14T06:45:39;13.83;;;5.77;;
3573;SDS011;1801;51.050;6.246;2023-06-14T06:48:04;16.70;;;6.47;;
3573;SDS011;1801;51.050;6.246;2023-06-14T06:50:29;20.70;;;6.47;;
3573;SDS011;1801;51.050;6.246;2023-06-14T06:52:55;11.63;;;6.03;;
3573;SDS011;1801;51.050;6.246;2023-06-14T06:55:20;10.33;;;6.17;;
3573;SDS011;1801;51.050;6.246;2023-06-14T06:57:45;15.10;;;6.23;;
3573;SDS011;1801;51.050;6.246;2023-06-14T07:00:11;10.40;;;5.60;;
3573;SDS011;1801;51.050;6.246;2023-06-14T07:02:37;14.53;;;5.50;;
3573;SDS011;1801;51.050;6.246;2023-06-14T07:05:02;22.33;;;6.73;;
3573;SDS011;1801;51.050;6.246;2023-06-14T07:07:28;16.10;;;6.03;;
3573;SDS011;1801;51.050;6.246;2023-06-14T07:09:53;15.77;;;5.70;;
3573;SDS011;1801;51.050;6.246;2023-06-14T07:12:18;15.53;;;6.67;;
3573;SDS011;1801;51.050;6.246;2023-06-14T07:14:43;10.10;;;6.00;;
3573;SDS011;1801;51.050;6.246;2023-06-14T07:17:08;9.10;;;4.90;;
3573;SDS011;1801;51.050;6.246;2023-06-14T07:19:34;13.60;;;5.47;;
3573;SDS011;1801;51.050;6.246;2023-06-14T07:22:00;12.70;;;5.03;;
3573;SDS011;1801;51.050;6.246;2023-06-14T07:24:25;9.73;;;4.77;;
3573;SDS011;1801;51.050;6.246;2023-06-14T07:26:50;12.67;;;4.87;;
3573;SDS011;1801;51.050;6.246;2023-06-14T07:29:16;11.40;;;4.43;;
3573;SDS011;1801;51.050;6.246;2023-06-14T07:31:41;10.03;;;5.47;;
3573;SDS011;1801;51.050;6.246;2023-06-14T07:34:06;10.20;;;5.10;;
3573;SDS011;1801;51.050;6.246;2023-06-14T07:36:32;15.53;;;4.70;;
3573;SDS011;1801;51.050;6.246;2023-06-14T07:38:57;9.37;;;4.80;;
3573;SDS011;1801;51.050;6.246;2023-06-14T07:41:22;11.63;;;5.07;;
3573;SDS011;1801;51.050;6.246;2023-06-14T07:43:47;13.03;;;5.07;;
3573;SDS011;1801;51.050;6.246;2023-06-14T07:46:14;9.40;;;4.43;;
3573;SDS011;1801;51.050;6.246;2023-06-14T07:48:39;14.90;;;4.30;;
3573;SDS011;1801;51.050;6.246;2023-06-14T07:51:05;6.97;;;4.30;;
3573;SDS011;1801;51.050;6.246;2023-06-14T07:53:30;7.40;;;5.00;;
3573;SDS011;1801;51.050;6.246;2023-06-14T07:55:55;7.80;;;4.40;;
3573;SDS011;1801;51.050;6.246;2023-06-14T07:58:21;17.43;;;4.30;;
3573;SDS011;1801;51.050;6.246;2023-06-14T08:00:46;9.50;;;4.70;;
3573;SDS011;1801;51.050;6.246;2023-06-14T08:03:12;24.53;;;5.37;;
3573;SDS011;1801;51.050;6.246;2023-06-14T08:05:37;8.33;;;5.77;;
3573;SDS011;1801;51.050;6.246;2023-06-14T08:08:02;12.60;;;5.43;;
3573;SDS011;1801;51.050;6.246;2023-06-14T08:10:27;12.17;;;5.67;;
3573;SDS011;1801;51.050;6.246;2023-06-14T08:12:54;15.63;;;5.27;;
3573;SDS011;1801;51.050;6.246;2023-06-14T08:15:19;14.17;;;5.60;;
3573;SDS011;1801;51.050;6.246;2023-06-14T08:17:45;7.27;;;5.00;;
3573;SDS011;1801;51.050;6.246;2023-06-14T08:20:11;7.47;;;4.97;;
3573;SDS011;1801;51.050;6.246;2023-06-14T08:22:36;9.83;;;5.60;;
3573;SDS011;1801;51.050;6.246;2023-06-14T08:25:02;9.33;;;5.27;;
3573;SDS011;1801;51.050;6.246;2023-06-14T08:27:28;10.10;;;4.90;;
3573;SDS011;1801;51.050;6.246;2023-06-14T08:29:53;9.37;;;5.00;;
3573;SDS011;1801;51.050;6.246;2023-06-14T08:32:19;9.77;;;4.80;;
3573;SDS011;1801;51.050;6.246;2023-06-14T08:34:44;11.63;;;4.63;;
3573;SDS011;1801;51.050;6.246;2023-06-14T08:37:09;13.00;;;4.90;;
3573;SDS011;1801;51.050;6.246;2023-06-14T08:39:34;9.20;;;4.70;;
3573;SDS011;1801;51.050;6.246;2023-06-14T08:42:00;8.80;;;5.10;;
3573;SDS011;1801;51.050;6.246;2023-06-14T08:44:26;12.97;;;5.10;;
3573;SDS011;1801;51.050;6.246;2023-06-14T08:46:51;8.33;;;4.50;;
3573;SDS011;1801;51.050;6.246;2023-06-14T08:49:18;9.13;;;4.60;;
3573;SDS011;1801;51.050;6.246;2023-06-14T08:51:43;8.90;;;5.10;;
3573;SDS011;1801;51.050;6.246;2023-06-14T08:54:09;6.53;;;4.63;;
3573;SDS011;1801;51.050;6.246;2023-06-14T08:56:36;6.87;;;4.80;;
3573;SDS011;1801;51.050;6.246;2023-06-14T08:59:02;9.00;;;4.63;;
3573;SDS011;1801;51.050;6.246;2023-06-14T09:01:28;6.20;;;3.80;;
3573;SDS011;1801;51.050;6.246;2023-06-14T09:03:54;5.57;;;3.83;;
3573;SDS011;1801;51.050;6.246;2023-06-14T09:06:20;11.73;;;4.30;;
3573;SDS011;1801;51.050;6.246;2023-06-14T09:08:48;12.97;;;4.10;;
3573;SDS011;1801;51.050;6.246;2023-06-14T09:11:14;7.37;;;3.50;;
3573;SDS011;1801;51.050;6.246;2023-06-14T09:13:39;7.23;;;4.00;;
3573;SDS011;1801;51.050;6.246;2023-06-14T09:16:05;5.80;;;3.87;;
3573;SDS011;1801;51.050;6.246;2023-06-14T09:18:34;7.50;;;2.50;;
3573;SDS011;1801;51.050;6.246;2023-06-14T09:21:00;6.20;;;2.30;;
3573;SDS011;1801;51.050;6.246;2023-06-14T09:23:25;3.93;;;2.43;;
3573;SDS011;1801;51.050;6.246;2023-06-14T09:25:50;3.00;;;2.00;;
3573;SDS011;1801;51.050;6.246;2023-06-14T09:28:15;2.40;;;2.10;;
3573;SDS011;1801;51.050;6.246;2023-06-14T09:30:40;5.83;;;2.30;;
3573;SDS011;1801;51.050;6.246;2023-06-14T09:33:06;6.23;;;2.10;;
3573;SDS011;1801;51.050;6.246;2023-06-14T09:35:31;4.40;;;2.43;;
3573;SDS011;1801;51.050;6.246;2023-06-14T09:37:57;5.87;;;2.97;;
3573;SDS011;1801;51.050;6.246;2023-06-14T09:40:22;7.17;;;2.90;;
3573;SDS011;1801;51.050;6.246;2023-06-14T09:42:48;3.30;;;2.40;;
3573;SDS011;1801;51.050;6.246;2023-06-14T09:45:13;6.30;;;2.67;;
3573;SDS011;1801;51.050;6.246;2023-06-14T09:47:40;3.80;;;2.50;;
3573;SDS011;1801;51.050;6.246;2023-06-14T09:50:06;5.00;;;3.17;;
3573;SDS011;1801;51.050;6.246;2023-06-14T09:52:31;6.10;;;2.67;;
3573;SDS011;1801;51.050;6.246;2023-06-14T09:54:56;7.47;;;2.70;;
3573;SDS011;1801;51.050;6.246;2023-06-14T09:57:24;3.80;;;2.90;;
3573;SDS011;1801;51.050;6.246;2023-06-14T09:59:52;4.07;;;2.97;;
3573;SDS011;1801;51.050;6.246;2023-06-14T10:02:28;4.20;;;2.50;;
3573;SDS011;1801;51.050;6.246;2023-06-14T10:05:04;8.00;;;2.53;;
3573;SDS011;1801;51.050;6.246;2023-06-14T10:07:32;3.30;;;2.50;;
3573;SDS011;1801;51.050;6.246;2023-06-14T10:09:57;6.03;;;2.40;;
3573;SDS011;1801;51.050;6.246;2023-06-14T10:12:23;8.10;;;2.83;;
3573;SDS011;1801;51.050;6.246;2023-06-14T10:14:49;4.30;;;2.40;;
3573;SDS011;1801;51.050;6.246;2023-06-14T10:17:17;6.00;;;2.30;;
3573;SDS011;1801;51.050;6.246;2023-06-14T10:19:54;4.00;;;2.50;;
3573;SDS011;1801;51.050;6.246;2023-06-14T10:22:29;4.57;;;2.43;;
3573;SDS011;1801;51.050;6.246;2023-06-14T10:24:55;6.93;;;2.60;;
3573;SDS011;1801;51.050;6.246;2023-06-14T10:27:20;4.60;;;2.93;;
3573;SDS011;1801;51.050;6.246;2023-06-14T10:32:20;4.90;;;2.90;;
3573;SDS011;1801;51.050;6.246;2023-06-14T10:34:49;6.20;;;2.73;;
3573;SDS011;1801;51.050;6.246;2023-06-14T10:37:18;3.77;;;2.53;;
3573;SDS011;1801;51.050;6.246;2023-06-14T10:39:44;6.83;;;2.70;;
3573;SDS011;1801;51.050;6.246;2023-06-14T10:42:13;4.53;;;2.57;;
3573;SDS011;1801;51.050;6.246;2023-06-14T10:44:54;4.40;;;2.47;;
3573;SDS011;1801;51.050;6.246;2023-06-14T10:47:28;4.60;;;2.67;;
3573;SDS011;1801;51.050;6.246;2023-06-14T10:50:06;6.13;;;2.50;;
3573;SDS011;1801;51.050;6.246;2023-06-14T10:52:37;4.47;;;2.27;;
3573;SDS011;1801;51.050;6.246;2023-06-14T10:55:10;5.33;;;2.43;;
3573;SDS011;1801;51.050;6.246;2023-06-14T10:57:49;6.17;;;2.40;;
3573;SDS011;1801;51.050;6.246;2023-06-14T11:00:27;3.17;;;2.40;;
3573;SDS011;1801;51.050;6.246;2023-06-14T11:05:28;8.53;;;3.00;;
3573;SDS011;1801;51.050;6.246;2023-06-14T11:10:43;4.63;;;2.30;;
3573;SDS011;1801;51.050;6.246;2023-06-14T11:13:10;3.50;;;2.77;;
3573;SDS011;1801;51.050;6.246;2023-06-14T11:15:36;4.47;;;2.70;;
3573;SDS011;1801;51.050;6.246;2023-06-14T11:18:02;8.50;;;2.67;;
3573;SDS011;1801;51.050;6.246;2023-06-14T11:20:29;4.30;;;2.70;;
3573;SDS011;1801;51.050;6.246;2023-06-14T11:22:54;5.80;;;2.83;;
3573;SDS011;1801;51.050;6.246;2023-06-14T11:25:21;8.03;;;3.07;;
3573;SDS011;1801;51.050;6.246;2023-06-14T11:27:48;3.70;;;2.50;;
3573;SDS011;1801;51.050;6.246;2023-06-14T11:30:14;4.90;;;3.20;;
3573;SDS011;1801;51.050;6.246;2023-06-14T11:32:39;3.83;;;2.70;;
3573;SDS011;1801;51.050;6.246;2023-06-14T11:35:06;6.57;;;2.60;;
3573;SDS011;1801;51.050;6.246;2023-06-14T11:37:31;8.37;;;3.07;;
3573;SDS011;1801;51.050;6.246;2023-06-14T11:39:58;7.10;;;2.80;;
3573;SDS011;1801;51.050;6.246;2023-06-14T11:42:24;3.93;;;3.13;;
3573;SDS011;1801;51.050;6.246;2023-06-14T11:44:49;9.87;;;3.00;;
3573;SDS011;1801;51.050;6.246;2023-06-14T11:47:15;3.67;;;2.80;;
3573;SDS011;1801;51.050;6.246;2023-06-14T11:49:40;5.43;;;3.20;;
3573;SDS011;1801;51.050;6.246;2023-06-14T11:52:06;4.03;;;2.87;;
3573;SDS011;1801;51.050;6.246;2023-06-14T11:54:32;4.80;;;3.50;;
3573;SDS011;1801;51.050;6.246;2023-06-14T11:56:57;11.63;;;3.50;;
3573;SDS011;1801;51.050;6.246;2023-06-14T11:59:23;5.00;;;3.47;;
3573;SDS011;1801;51.050;6.246;2023-06-14T12:01:49;7.00;;;2.63;;
3573;SDS011;1801;51.050;6.246;2023-06-14T12:04:14;3.80;;;3.10;;
3573;SDS011;1801;51.050;6.246;2023-06-14T12:06:39;4.10;;;3.17;;
3573;SDS011;1801;51.050;6.246;2023-06-14T12:09:05;5.67;;;2.50;;
3573;SDS011;1801;51.050;6.246;2023-06-14T12:11:37;5.93;;;2.63;;
3573;SDS011;1801;51.050;6.246;2023-06-14T12:14:05;4.70;;;2.30;;
3573;SDS011;1801;51.050;6.246;2023-06-14T12:16:35;6.73;;;2.80;;
3573;SDS011;1801;51.050;6.246;2023-06-14T12:19:11;2.50;;;2.20;;
3573;SDS011;1801;51.050;6.246;2023-06-14T12:21:38;3.33;;;2.60;;
3573;SDS011;1801;51.050;6.246;2023-06-14T12:24:03;5.30;;;2.80;;
3573;SDS011;1801;51.050;6.246;2023-06-14T12:26:29;4.63;;;2.63;;
3573;SDS011;1801;51.050;6.246;2023-06-14T12:28:54;4.63;;;2.90;;
3573;SDS011;1801;51.050;6.246;2023-06-14T12:31:19;5.80;;;2.40;;
3573;SDS011;1801;51.050;6.246;2023-06-14T12:33:45;6.20;;;2.50;;
3573;SDS011;1801;51.050;6.246;2023-06-14T12:36:14;5.73;;;4.27;;
3573;SDS011;1801;51.050;6.246;2023-06-14T12:38:40;4.57;;;2.63;;
3573;SDS011;1801;51.050;6.246;2023-06-14T12:41:05;6.80;;;2.60;;
3573;SDS011;1801;51.050;6.246;2023-06-14T12:43:30;3.10;;;2.80;;
3573;SDS011;1801;51.050;6.246;2023-06-14T12:45:56;3.33;;;2.20;;
3573;SDS011;1801;51.050;6.246;2023-06-14T12:48:21;9.00;;;2.50;;
3573;SDS011;1801;51.050;6.246;2023-06-14T12:50:47;4.23;;;2.27;;
3573;SDS011;1801;51.050;6.246;2023-06-14T12:53:12;9.53;;;3.10;;
3573;SDS011;1801;51.050;6.246;2023-06-14T12:55:38;3.23;;;2.67;;
3573;SDS011;1801;51.050;6.246;2023-06-14T12:58:03;5.53;;;2.70;;
3573;SDS011;1801;51.050;6.246;2023-06-14T13:00:28;7.30;;;2.93;;
3573;SDS011;1801;51.050;6.246;2023-06-14T13:02:55;5.07;;;2.60;;
3573;SDS011;1801;51.050;6.246;2023-06-14T13:05:20;4.10;;;3.00;;
3573;SDS011;1801;51.050;6.246;2023-06-14T13:07:45;3.63;;;3.33;;
3573;SDS011;1801;51.050;6.246;2023-06-14T13:10:11;9.43;;;3.80;;
3573;SDS011;1801;51.050;6.246;2023-06-14T13:12:36;5.13;;;2.90;;
3573;SDS011;1801;51.050;6.246;2023-06-14T13:15:01;6.10;;;3.20;;
3573;SDS011;1801;51.050;6.246;2023-06-14T13:17:26;6.43;;;3.30;;
3573;SDS011;1801;51.050;6.246;2023-06-14T13:19:52;4.00;;;3.30;;
3573;SDS011;1801;51.050;6.246;2023-06-14T13:22:17;3.10;;;2.80;;
3573;SDS011;1801;51.050;6.246;2023-06-14T13:24:42;9.90;;;3.40;;
3573;SDS011;1801;51.050;6.246;2023-06-14T13:27:08;7.13;;;3.40;;
3573;SDS011;1801;51.050;6.246;2023-06-14T13:29:33;11.50;;;3.03;;
3573;SDS011;1801;51.050;6.246;2023-06-14T13:32:00;5.70;;;3.90;;
3573;SDS011;1801;51.050;6.246;2023-06-14T13:34:25;4.43;;;2.87;;
3573;SDS011;1801;51.050;6.246;2023-06-14T13:36:51;4.73;;;3.17;;
3573;SDS011;1801;51.050;6.246;2023-06-14T13:39:16;6.07;;;4.07;;
3573;SDS011;1801;51.050;6.246;2023-06-14T13:41:41;4.53;;;3.20;;
3573;SDS011;1801;51.050;6.246;2023-06-14T13:44:06;4.80;;;3.50;;
3573;SDS011;1801;51.050;6.246;2023-06-14T13:46:32;4.33;;;2.93;;
3573;SDS011;1801;51.050;6.246;2023-06-14T13:48:57;5.03;;;2.97;;
3573;SDS011;1801;51.050;6.246;2023-06-14T13:51:23;7.20;;;3.10;;
3573;SDS011;1801;51.050;6.246;2023-06-14T13:53:48;3.90;;;2.87;;
3573;SDS011;1801;51.050;6.246;2023-06-14T13:56:14;6.70;;;2.57;;
3573;SDS011;1801;51.050;6.246;2023-06-14T13:58:39;4.70;;;2.93;;
3573;SDS011;1801;51.050;6.246;2023-06-14T14:01:04;5.77;;;3.43;;
3573;SDS011;1801;51.050;6.246;2023-06-14T14:03:30;6.33;;;2.60;;
3573;SDS011;1801;51.050;6.246;2023-06-14T14:05:55;4.70;;;2.80;;
3573;SDS011;1801;51.050;6.246;2023-06-14T14:08:21;5.40;;;2.47;;
3573;SDS011;1801;51.050;6.246;2023-06-14T14:10:46;5.03;;;3.07;;
3573;SDS011;1801;51.050;6.246;2023-06-14T14:13:11;4.30;;;2.37;;
3573;SDS011;1801;51.050;6.246;2023-06-14T14:15:37;6.73;;;2.70;;
3573;SDS011;1801;51.050;6.246;2023-06-14T14:18:02;5.77;;;2.50;;
3573;SDS011;1801;51.050;6.246;2023-06-14T14:20:29;7.30;;;2.93;;
3573;SDS011;1801;51.050;6.246;2023-06-14T14:22:55;3.53;;;3.23;;
3573;SDS011;1801;51.050;6.246;2023-06-14T14:25:21;2.93;;;2.30;;
3573;SDS011;1801;51.050;6.246;2023-06-14T14:27:46;3.37;;;2.50;;
3573;SDS011;1801;51.050;6.246;2023-06-14T14:30:12;9.27;;;2.80;;
3573;SDS011;1801;51.050;6.246;2023-06-14T14:32:38;5.27;;;2.33;;
3573;SDS011;1801;51.050;6.246;2023-06-14T14:35:03;4.10;;;2.80;;
3573;SDS011;1801;51.050;6.246;2023-06-14T14:37:29;4.47;;;2.40;;
3573;SDS011;1801;51.050;6.246;2023-06-14T14:39:54;5.60;;;2.70;;
3573;SDS011;1801;51.050;6.246;2023-06-14T14:42:20;4.63;;;2.23;;
3573;SDS011;1801;51.050;6.246;2023-06-14T14:44:45;4.83;;;2.60;;
3573;SDS011;1801;51.050;6.246;2023-06-14T14:47:10;10.60;;;2.90;;
3573;SDS011;1801;51.050;6.246;2023-06-14T14:49:35;8.33;;;2.33;;
3573;SDS011;1801;51.050;6.246;2023-06-14T14:52:01;3.50;;;2.27;;
3573;SDS011;1801;51.050;6.246;2023-06-14T14:54:26;5.40;;;2.63;;
3573;SDS011;1801;51.050;6.246;2023-06-14T14:56:51;4.50;;;1.90;;
3573;SDS011;1801;51.050;6.246;2023-06-14T14:59:16;5.73;;;3.37;;
3573;SDS011;1801;51.050;6.246;2023-06-14T15:01:42;7.73;;;2.33;;
3573;SDS011;1801;51.050;6.246;2023-06-14T15:04:07;2.43;;;2.23;;
3573;SDS011;1801;51.050;6.246;2023-06-14T15:06:32;2.37;;;2.07;;
3573;SDS011;1801;51.050;6.246;2023-06-14T15:09:00;2.97;;;2.70;;